Time;durP1;ratioP1;P1;durP2;ratioP2;P2;SDS_P1;SDS_P2;PMS_P1;PMS_P2;Temp;Humidity;BMP_temperature;BMP_pressure;BME280_temperature;BME280_humidity;BME280_pressure;Samples;Min_cycle;Max_cycle;Signal;HPM_P1;HPM_P2
2022/12/17 13:06:02;;;;;;;78.00;22.35;;;;;;;-0.32;100.00;102646.91;4977838;28;20117;-79
2022/12/17 13:08:27;;;;;;;75.90;22.83;;;;;;;-0.39;100.00;102643.19;4990945;28;20030;-78
2022/12/17 13:10:53;;;;;;;82.40;22.80;;;;;;;-0.43;100.00;102644.72;4988811;28;20061;-78
2022/12/17 13:13:21;;;;;;;80.85;23.13;;;;;;;-0.50;100.00;102637.59;4990096;28;20030;-78
2022/12/17 13:15:52;;;;;;;80.03;22.42;;;;;;;-0.55;100.00;102635.63;4968932;28;20509;-78
2022/12/17 13:18:32;;;;;;;78.60;21.63;;;;;;;-0.58;100.00;102643.09;4988959;28;20034;-79
2022/12/17 13:21:24;;;;;;;81.35;22.55;;;;;;;-0.53;100.00;102651.81;4986729;28;20401;-79
2022/12/17 13:23:49;;;;;;;77.60;21.98;;;;;;;-0.59;100.00;102648.97;4981914;28;20058;-78
2022/12/17 13:26:19;;;;;;;75.68;21.45;;;;;;;-0.61;100.00;102650.56;4990160;28;20061;-78
2022/12/17 13:28:53;;;;;;;84.07;23.27;;;;;;;-0.63;100.00;102647.97;4991031;28;20080;-87
2022/12/17 13:31:24;;;;;;;75.18;20.90;;;;;;;-0.62;100.00;102649.72;4990856;28;20022;-87
2022/12/17 13:34:06;;;;;;;80.18;22.48;;;;;;;-0.64;100.00;102655.50;4986872;28;20026;-87
2022/12/17 13:36:37;;;;;;;83.57;22.92;;;;;;;-0.69;100.00;102649.31;4979563;28;20104;-87
2022/12/17 13:39:13;;;;;;;81.80;23.52;;;;;;;-0.76;100.00;102647.25;4966025;28;20028;-87
2022/12/17 13:41:39;;;;;;;81.65;22.33;;;;;;;-0.77;100.00;102641.28;4986535;28;20033;-84
2022/12/17 13:44:19;;;;;;;86.68;23.80;;;;;;;-0.75;100.00;102642.22;4990783;28;20404;-85
2022/12/17 13:46:47;;;;;;;82.57;22.77;;;;;;;-0.75;100.00;102646.47;4989842;28;20049;-84
2022/12/17 13:49:23;;;;;;;82.25;22.60;;;;;;;-0.77;100.00;102646.38;4989869;28;20108;-84
2022/12/17 13:52:16;;;;;;;91.55;24.00;;;;;;;-0.75;100.00;102652.41;4994549;28;20040;-85
2022/12/17 13:54:42;;;;;;;75.30;22.52;;;;;;;-0.77;100.00;102653.13;4990509;28;20053;-84
2022/12/17 13:57:22;;;;;;;75.47;22.45;;;;;;;-0.75;100.00;102651.56;4976570;28;20400;-83
2022/12/17 14:00:06;;;;;;;76.30;21.40;;;;;;;-0.74;100.00;102641.41;5002016;28;20022;-83
2022/12/17 14:02:35;;;;;;;72.95;20.30;;;;;;;-0.77;100.00;102654.00;4988395;28;20417;-83
2022/12/17 14:05:03;;;;;;;72.60;20.63;;;;;;;-0.78;100.00;102651.38;4996901;28;20045;-83
2022/12/17 14:07:32;;;;;;;74.75;21.42;;;;;;;-0.81;100.00;102655.50;4994420;28;20097;-83
2022/12/17 14:09:57;;;;;;;79.05;21.70;;;;;;;-0.85;100.00;102653.63;4995295;28;20431;-83
2022/12/17 14:12:25;;;;;;;75.72;21.20;;;;;;;-0.89;100.00;102654.22;4987218;28;20539;-83
2022/12/17 14:14:56;;;;;;;75.93;22.02;;;;;;;-0.94;100.00;102658.22;4997495;28;20542;-80
2022/12/17 14:17:24;;;;;;;74.22;21.20;;;;;;;-0.98;100.00;102652.91;4984756;28;20487;-79
2022/12/17 14:19:58;;;;;;;79.95;21.73;;;;;;;-1.01;100.00;102661.25;4966410;28;20030;-79
2022/12/17 14:22:39;;;;;;;76.53;20.02;;;;;;;-1.03;100.00;102655.22;4989551;28;20038;-80
2022/12/17 14:25:12;;;;;;;79.45;21.20;;;;;;;-1.05;100.00;102666.09;4994590;28;20044;-79
2022/12/17 14:27:53;;;;;;;75.28;20.80;;;;;;;-1.08;100.00;102665.91;4993111;28;20034;-80
2022/12/17 14:30:20;;;;;;;83.63;22.02;;;;;;;-1.11;100.00;102671.75;4991450;28;20049;-80
2022/12/17 14:32:46;;;;;;;85.22;21.73;;;;;;;-1.11;100.00;102663.22;4992639;28;20038;-80
2022/12/17 14:35:24;;;;;;;81.47;22.20;;;;;;;-1.09;100.00;102674.38;4991998;28;20038;-80
2022/12/17 14:37:49;;;;;;;72.55;20.90;;;;;;;-1.09;100.00;102679.47;4992892;28;20117;-81
2022/12/17 14:40:14;;;;;;;81.15;20.95;;;;;;;-1.13;100.00;102673.31;4993035;28;20392;-80
2022/12/17 14:42:40;;;;;;;82.72;21.10;;;;;;;-1.14;100.00;102674.13;4993053;28;20034;-80
2022/12/17 14:45:14;;;;;;;69.93;20.40;;;;;;;-1.16;100.00;102678.22;4993268;28;20133;-80
2022/12/17 14:47:53;;;;;;;74.07;20.60;;;;;;;-1.18;100.00;102673.88;4992857;28;20038;-80
2022/12/17 14:50:18;;;;;;;71.25;20.23;;;;;;;-1.16;100.00;102687.56;4989879;28;20033;-80
2022/12/17 14:52:52;;;;;;;79.53;21.13;;;;;;;-1.16;100.00;102687.56;4991380;28;20038;-80
2022/12/17 14:55:30;;;;;;;75.18;21.60;;;;;;;-1.20;100.00;102691.59;4992133;28;20275;-80
2022/12/17 14:58:10;;;;;;;74.75;21.20;;;;;;;-1.21;100.00;102687.28;4991220;28;20054;-80
2022/12/17 15:01:04;;;;;;;76.63;21.38;;;;;;;-1.26;100.00;102681.97;4990870;28;20080;-80
2022/12/17 15:03:37;;;;;;;75.38;20.77;;;;;;;-1.34;100.00;102689.97;4984423;28;20038;-80
2022/12/17 15:06:05;;;;;;;85.95;22.67;;;;;;;-1.39;100.00;102699.03;4992727;28;20070;-79
2022/12/17 15:08:34;;;;;;;78.22;21.10;;;;;;;-1.47;100.00;102705.34;4992887;28;20026;-80
2022/12/17 15:10:59;;;;;;;82.60;21.23;;;;;;;-1.51;100.00;102703.44;4991842;28;20018;-81
2022/12/17 15:13:24;;;;;;;74.20;20.58;;;;;;;-1.56;100.00;102694.66;4987033;28;20032;-80
2022/12/17 15:15:51;;;;;;;73.40;20.52;;;;;;;-1.57;100.00;102698.03;4991748;28;20034;-80
2022/12/17 15:18:16;;;;;;;75.95;19.88;;;;;;;-1.59;100.00;102705.56;4988384;28;20503;-80
2022/12/17 15:20:42;;;;;;;81.38;21.15;;;;;;;-1.61;100.00;102702.94;4990392;28;20018;-80
2022/12/17 15:23:19;;;;;;;74.50;20.13;;;;;;;-1.61;100.00;102702.06;4983211;28;20504;-80
2022/12/17 15:25:46;;;;;;;78.95;20.50;;;;;;;-1.65;100.00;102720.50;4972823;28;20045;-81
2022/12/17 15:28:12;;;;;;;75.28;20.55;;;;;;;-1.71;100.00;102723.56;4969799;28;20034;-80
2022/12/17 15:30:38;;;;;;;76.57;20.98;;;;;;;-1.73;100.00;102730.22;4988930;28;20064;-80
2022/12/17 15:33:05;;;;;;;82.90;21.98;;;;;;;-1.78;100.00;102728.22;4988632;28;20600;-80
2022/12/17 15:35:31;;;;;;;75.93;19.92;;;;;;;-1.85;100.00;102732.06;4990496;28;20018;-80
2022/12/17 15:37:57;;;;;;;80.50;20.48;;;;;;;-1.90;100.00;102730.91;4990794;28;20161;-80
2022/12/17 15:40:22;;;;;;;77.10;20.02;;;;;;;-1.94;100.00;102735.75;4996391;28;20113;-80
2022/12/17 15:45:31;;;;;;;72.28;20.42;;;;;;;-2.00;100.00;102732.06;4990001;28;20425;-81
2022/12/17 15:47:56;;;;;;;78.78;20.25;;;;;;;-2.03;100.00;102736.97;4990831;28;20489;-81
2022/12/17 15:50:22;;;;;;;67.97;17.83;;;;;;;-2.03;100.00;102743.72;4990152;28;20548;-81
2022/12/17 15:52:47;;;;;;;69.60;18.23;;;;;;;-2.09;100.00;102746.78;4990219;28;20101;-81
2022/12/17 15:55:13;;;;;;;79.60;20.17;;;;;;;-2.12;100.00;102745.72;4990980;28;20113;-81
2022/12/17 15:57:38;;;;;;;69.60;18.58;;;;;;;-2.13;100.00;102743.97;4991102;28;20452;-79
2022/12/17 16:00:04;;;;;;;74.80;20.33;;;;;;;-2.14;100.00;102745.63;4991589;28;20447;-79
2022/12/17 16:02:29;;;;;;;71.47;18.33;;;;;;;-2.22;100.00;102744.31;4990361;28;20034;-79
2022/12/17 16:04:54;;;;;;;79.90;19.88;;;;;;;-2.24;100.00;102745.00;4983817;28;20049;-80
2022/12/17 16:07:20;;;;;;;73.10;19.98;;;;;;;-2.29;100.00;102739.66;4972546;28;20027;-81
2022/12/17 16:09:45;;;;;;;74.85;19.42;;;;;;;-2.32;100.00;102747.09;4992000;28;20018;-80
2022/12/17 16:12:10;;;;;;;70.20;19.30;;;;;;;-2.38;100.00;102746.72;4972561;28;20109;-80
2022/12/17 16:14:36;;;;;;;72.05;19.77;;;;;;;-2.42;100.00;102747.34;4982433;28;20125;-80
2022/12/17 16:17:01;;;;;;;87.95;19.83;;;;;;;-2.44;100.00;102749.78;4987192;28;20034;-81
2022/12/17 16:19:27;;;;;;;76.25;20.27;;;;;;;-2.43;100.00;102753.19;4984808;28;20188;-81
2022/12/17 16:21:52;;;;;;;70.75;18.17;;;;;;;-2.44;100.00;102757.41;4987485;28;20117;-81
2022/12/17 16:24:17;;;;;;;77.60;18.67;;;;;;;-2.47;100.00;102753.81;4991331;28;20037;-81
2022/12/17 16:26:43;;;;;;;75.78;19.88;;;;;;;-2.47;100.00;102761.44;4987813;28;20084;-81
2022/12/17 16:29:08;;;;;;;75.68;18.52;;;;;;;-2.51;100.00;102745.13;4990289;28;20069;-77
2022/12/17 16:31:33;;;;;;;70.85;18.80;;;;;;;-2.50;100.00;102757.03;4986834;28;20026;-77
2022/12/17 16:33:59;;;;;;;76.15;19.42;;;;;;;-2.48;100.00;102757.13;4977503;28;20093;-78
2022/12/17 16:36:24;;;;;;;78.15;19.55;;;;;;;-2.48;100.00;102755.47;4986287;28;20117;-78
2022/12/17 16:38:53;;;;;;;71.65;18.52;;;;;;;-2.48;100.00;102760.56;4988493;28;20026;-78
2022/12/17 16:41:20;;;;;;;74.53;18.98;;;;;;;-2.48;100.00;102760.56;4986295;28;20477;-78
2022/12/17 16:43:46;;;;;;;63.20;18.48;;;;;;;-2.48;100.00;102764.75;4988716;28;20101;-78
2022/12/17 16:46:23;;;;;;;74.43;19.00;;;;;;;-2.47;100.00;102762.31;4987791;28;20030;-78
2022/12/17 16:48:48;;;;;;;87.78;20.08;;;;;;;-2.47;100.00;102757.22;4980357;28;20114;-78
2022/12/17 16:51:16;;;;;;;82.15;19.33;;;;;;;-2.45;100.00;102748.03;4985592;28;20112;-78
2022/12/17 16:53:42;;;;;;;80.22;19.40;;;;;;;-2.41;100.00;102755.06;4971331;28;20300;-78
2022/12/17 16:56:14;;;;;;;77.93;20.27;;;;;;;-2.40;100.00;102748.31;4990966;28;20193;-79
2022/12/17 16:58:39;;;;;;;79.60;21.83;;;;;;;-2.40;100.00;102755.94;4990203;28;20158;-79
2022/12/17 17:01:05;;;;;;;72.50;19.17;;;;;;;-2.41;100.00;102757.59;4990752;28;20446;-78
2022/12/17 17:03:30;;;;;;;78.95;20.25;;;;;;;-2.40;100.00;102758.47;4986755;28;20022;-78
2022/12/17 17:05:59;;;;;;;75.82;22.63;;;;;;;-2.41;100.00;102761.78;4990724;28;20047;-78
2022/12/17 17:08:25;;;;;;;75.78;20.80;;;;;;;-2.46;100.00;102753.88;4986469;28;20040;-78
2022/12/17 17:10:50;;;;;;;77.10;19.95;;;;;;;-2.49;100.00;102763.00;4988246;28;20026;-78
2022/12/17 17:13:15;;;;;;;77.20;19.70;;;;;;;-2.53;100.00;102759.41;4989492;28;20039;-78
2022/12/17 17:15:41;;;;;;;75.10;20.90;;;;;;;-2.53;100.00;102758.53;4974304;28;20034;-79
2022/12/17 17:18:06;;;;;;;78.40;20.13;;;;;;;-2.55;100.00;102767.72;4970087;28;20362;-79
2022/12/17 17:20:31;;;;;;;76.95;19.08;;;;;;;-2.57;100.00;102765.06;4972874;28;20045;-78
2022/12/17 17:22:57;;;;;;;79.45;21.17;;;;;;;-2.57;100.00;102764.19;4990831;28;20397;-78
2022/12/17 17:25:22;;;;;;;73.47;20.45;;;;;;;-2.58;100.00;102775.13;4984624;28;20043;-79
2022/12/17 17:27:47;;;;;;;78.40;21.52;;;;;;;-2.62;100.00;102773.19;4987335;28;20048;-79
2022/12/17 17:30:13;;;;;;;77.97;20.13;;;;;;;-2.66;100.00;102769.56;4994442;28;20030;-79
2022/12/17 17:32:38;;;;;;;80.90;20.55;;;;;;;-2.68;100.00;102763.56;4993720;28;20030;-79
2022/12/17 17:35:04;;;;;;;80.80;21.05;;;;;;;-2.69;100.00;102768.53;4979003;28;20049;-79
2022/12/17 17:37:29;;;;;;;83.05;21.50;;;;;;;-2.72;100.00;102766.66;4987122;28;20046;-79
2022/12/17 17:39:55;;;;;;;77.57;20.92;;;;;;;-2.75;100.00;102765.63;4993368;28;20022;-80
2022/12/17 17:42:20;;;;;;;74.93;20.65;;;;;;;-2.78;100.00;102772.25;4985475;28;20121;-80
2022/12/17 17:44:47;;;;;;;85.63;21.52;;;;;;;-2.77;100.00;102785.81;4994202;28;20026;-81
2022/12/17 17:47:12;;;;;;;81.90;21.92;;;;;;;-2.76;100.00;102787.59;4993488;28;20030;-81
2022/12/17 17:49:38;;;;;;;80.95;21.38;;;;;;;-2.74;100.00;102790.22;4993292;28;20037;-81
2022/12/17 17:52:03;;;;;;;83.95;24.42;;;;;;;-2.73;100.00;102789.44;4992941;28;20034;-81
2022/12/17 17:54:29;;;;;;;92.90;24.50;;;;;;;-2.80;100.00;102783.13;4993977;28;20072;-81
2022/12/17 17:56:54;;;;;;;85.30;23.67;;;;;;;-2.78;100.00;102790.00;4986808;28;20077;-80
2022/12/17 17:59:21;;;;;;;267.77;82.95;;;;;;;-2.78;100.00;102779.00;4988980;28;20027;-80
2022/12/17 18:01:48;;;;;;;101.45;27.98;;;;;;;-2.78;100.00;102777.31;4993093;28;20037;-80
2022/12/17 18:04:17;;;;;;;102.32;27.75;;;;;;;-2.77;100.00;102780.75;4983139;28;20321;-80
2022/12/17 18:06:44;;;;;;;82.85;23.10;;;;;;;-2.78;100.00;102782.41;4988031;28;20030;-80
2022/12/17 18:09:10;;;;;;;114.60;33.75;;;;;;;-2.78;100.00;102784.06;4992163;28;20045;-80
2022/12/17 18:11:37;;;;;;;91.57;24.13;;;;;;;-2.79;100.00;102787.38;4990679;28;20028;-79
2022/12/17 18:14:04;;;;;;;145.32;48.08;;;;;;;-2.78;100.00;102794.22;4982939;28;20034;-79
2022/12/17 18:16:38;;;;;;;92.07;24.95;;;;;;;-2.75;100.00;102796.06;4973804;28;20492;-80
2022/12/17 18:19:18;;;;;;;97.57;24.45;;;;;;;-2.78;100.00;102792.56;4992223;28;20042;-80
2022/12/17 18:21:44;;;;;;;89.38;22.85;;;;;;;-2.78;100.00;102789.13;4987536;28;20387;-79
2022/12/17 18:24:14;;;;;;;93.10;25.92;;;;;;;-2.76;100.00;102799.38;4989706;28;20028;-80
2022/12/17 18:26:41;;;;;;;113.22;37.17;;;;;;;-2.75;100.00;102794.41;4992941;28;20038;-80
2022/12/17 18:29:22;;;;;;;93.55;26.95;;;;;;;-2.74;100.00;102800.38;4990777;28;20054;-80
2022/12/17 18:31:49;;;;;;;96.47;27.60;;;;;;;-2.77;100.00;102806.13;4992076;28;20493;-80
2022/12/17 18:34:16;;;;;;;87.70;24.42;;;;;;;-2.78;100.00;102801.81;4991391;28;20437;-80
2022/12/17 18:36:43;;;;;;;93.78;32.58;;;;;;;-2.80;100.00;102803.41;4983027;28;20026;-79
2022/12/17 18:39:17;;;;;;;81.97;22.73;;;;;;;-2.82;100.00;102800.78;4993376;28;20077;-80
2022/12/17 18:44:28;;;;;;;90.18;25.75;;;;;;;-2.87;100.00;102794.53;4992567;28;20064;-80
2022/12/17 18:46:54;;;;;;;85.93;21.83;;;;;;;-2.89;100.00;102788.50;4992384;28;20109;-80
2022/12/17 18:49:21;;;;;;;77.07;22.00;;;;;;;-2.93;100.00;102790.72;4993232;28;20152;-80
2022/12/17 18:51:48;;;;;;;85.10;22.17;;;;;;;-2.95;100.00;102798.25;4991845;28;20026;-80
2022/12/17 18:54:16;;;;;;;84.72;21.63;;;;;;;-2.98;100.00;102802.25;4984720;28;20109;-80
2022/12/17 18:56:42;;;;;;;83.72;22.42;;;;;;;-3.03;100.00;102798.56;4989805;28;20037;-80
2022/12/17 18:59:11;;;;;;;80.22;21.58;;;;;;;-3.11;100.00;102795.53;4993073;28;20027;-80
2022/12/17 19:01:37;;;;;;;78.47;21.27;;;;;;;-3.14;100.00;102791.94;4991725;28;20031;-80
2022/12/17 19:04:06;;;;;;;84.80;21.50;;;;;;;-3.14;100.00;102789.41;4978851;28;20080;-79
2022/12/17 19:06:33;;;;;;;74.95;19.60;;;;;;;-3.12;100.00;102796.31;4979884;28;20085;-79
2022/12/17 19:08:58;;;;;;;80.43;20.20;;;;;;;-3.15;100.00;102785.13;4991374;28;20543;-79
2022/12/17 19:11:24;;;;;;;74.45;19.85;;;;;;;-3.17;100.00;102789.19;4990285;28;20037;-79
2022/12/17 19:13:50;;;;;;;76.22;19.77;;;;;;;-3.22;100.00;102802.47;4992789;28;20037;-79
2022/12/17 19:16:26;;;;;;;79.65;21.23;;;;;;;-3.27;100.00;102808.91;4990970;28;20026;-79
2022/12/17 19:18:54;;;;;;;74.63;20.02;;;;;;;-3.30;100.00;102811.25;4981103;28;20103;-80
2022/12/17 19:21:20;;;;;;;68.75;19.20;;;;;;;-3.31;100.00;102817.09;4990806;28;20073;-80
2022/12/17 19:23:46;;;;;;;67.88;19.02;;;;;;;-3.31;100.00;102819.63;4981295;28;20026;-80
2022/12/17 19:26:18;;;;;;;68.78;19.55;;;;;;;-3.35;100.00;102817.69;4973981;28;20495;-80
2022/12/17 19:28:47;;;;;;;80.35;20.45;;;;;;;-3.34;100.00;102821.97;4992390;28;20157;-81
2022/12/17 19:31:12;;;;;;;68.18;20.40;;;;;;;-3.34;100.00;102823.63;4981824;28;20461;-80
2022/12/17 19:33:38;;;;;;;69.88;20.23;;;;;;;-3.38;100.00;102819.13;4991461;28;20497;-81
2022/12/17 19:36:07;;;;;;;74.25;19.75;;;;;;;-3.42;100.00;102822.28;4991072;28;20186;-81
2022/12/17 19:38:33;;;;;;;68.80;20.23;;;;;;;-3.50;100.00;102826.84;4990703;28;20022;-81
2022/12/17 19:41:05;;;;;;;74.72;20.42;;;;;;;-3.50;100.00;102836.97;4983089;28;20034;-81
2022/12/17 19:43:31;;;;;;;78.40;21.27;;;;;;;-3.55;100.00;102828.22;4989591;28;20084;-81
2022/12/17 19:46:04;;;;;;;74.38;20.15;;;;;;;-3.52;100.00;102832.56;4990740;28;20038;-81
2022/12/17 19:48:34;;;;;;;79.45;20.52;;;;;;;-3.53;100.00;102836.75;4979154;28;20036;-79
2022/12/17 19:51:00;;;;;;;72.22;20.30;;;;;;;-3.58;100.00;102833.94;4981502;28;20034;-79
2022/12/17 19:53:26;;;;;;;68.15;20.17;;;;;;;-3.64;100.00;102833.53;4987938;28;20053;-79
2022/12/17 19:55:53;;;;;;;67.72;19.23;;;;;;;-3.66;100.00;102834.22;4983802;28;20027;-79
2022/12/17 19:58:19;;;;;;;71.30;19.77;;;;;;;-3.71;100.00;102833.91;4988659;28;20030;-78
2022/12/17 20:00:44;;;;;;;69.30;20.52;;;;;;;-3.77;100.00;102835.16;4983592;28;20036;-78
2022/12/17 20:03:10;;;;;;;81.03;21.98;;;;;;;-3.86;100.00;102837.97;4987412;28;20022;-79
2022/12/17 20:05:35;;;;;;;72.80;19.38;;;;;;;-3.87;100.00;102846.34;4987646;28;20050;-78
2022/12/17 20:08:01;;;;;;;77.68;22.25;;;;;;;-3.86;100.00;102844.69;4973208;28;20515;-78
2022/12/17 20:10:26;;;;;;;80.65;22.35;;;;;;;-3.85;100.00;102854.91;4990614;28;20096;-78
2022/12/17 20:12:51;;;;;;;81.97;22.77;;;;;;;-3.86;100.00;102859.88;4990318;28;20048;-78
2022/12/17 20:15:17;;;;;;;81.70;22.48;;;;;;;-3.94;100.00;102850.88;4989051;28;20030;-78
2022/12/17 20:17:42;;;;;;;75.70;21.85;;;;;;;-4.00;100.00;102854.78;4984851;28;20600;-78
2022/12/17 20:20:08;;;;;;;76.80;21.77;;;;;;;-4.01;100.00;102855.53;4985688;28;20030;-78
2022/12/17 20:22:33;;;;;;;83.30;22.83;;;;;;;-3.99;100.00;102868.31;4990754;28;20105;-78
2022/12/17 20:25:00;;;;;;;89.40;23.98;;;;;;;-4.00;100.00;102869.97;4991494;28;20037;-78
2022/12/17 20:27:26;;;;;;;80.65;22.23;;;;;;;-3.97;100.00;102870.97;4989810;28;20046;-78
2022/12/17 20:29:52;;;;;;;82.95;21.70;;;;;;;-3.93;100.00;102865.31;4990233;28;20088;-78
2022/12/17 20:32:19;;;;;;;82.65;22.35;;;;;;;-3.91;100.00;102872.25;4990010;28;20061;-78
2022/12/17 20:34:45;;;;;;;87.05;23.52;;;;;;;-3.92;100.00;102867.06;4987293;28;20050;-78
2022/12/17 20:37:10;;;;;;;80.55;21.95;;;;;;;-3.96;100.00;102860.94;4989175;28;20085;-78
2022/12/17 20:39:35;;;;;;;79.28;21.90;;;;;;;-3.94;100.00;102873.69;4990884;28;20026;-78
2022/12/17 20:42:01;;;;;;;87.50;22.83;;;;;;;-3.94;100.00;102868.59;4989870;28;20026;-78
2022/12/17 20:44:26;;;;;;;90.57;22.95;;;;;;;-3.90;100.00;102868.94;4989748;28;20026;-78
2022/12/17 20:46:51;;;;;;;84.82;22.27;;;;;;;-3.86;100.00;102857.34;4990134;28;20033;-77
2022/12/17 20:49:17;;;;;;;93.68;23.85;;;;;;;-3.84;100.00;102843.13;4972953;28;20049;-81
2022/12/17 20:51:42;;;;;;;87.15;24.05;;;;;;;-3.84;100.00;102841.50;4989833;28;20037;-81
2022/12/17 20:54:08;;;;;;;91.45;23.20;;;;;;;-3.84;100.00;102830.47;4990255;28;20033;-82
2022/12/17 20:56:34;;;;;;;82.95;23.15;;;;;;;-3.82;100.00;102836.53;4990900;28;20034;-81
2022/12/17 20:59:03;;;;;;;89.38;23.48;;;;;;;-3.85;100.00;102836.31;4970126;28;20026;-82
2022/12/17 21:01:31;;;;;;;92.85;23.80;;;;;;;-3.92;100.00;102824.91;4965943;28;20023;-82
2022/12/17 21:03:57;;;;;;;88.70;25.02;;;;;;;-3.89;100.00;102836.91;4982438;28;20440;-82
2022/12/17 21:06:34;;;;;;;80.63;23.05;;;;;;;-3.90;100.00;102837.66;4990374;28;20112;-82
2022/12/17 21:08:59;;;;;;;84.88;25.40;;;;;;;-3.91;100.00;102840.97;4970384;28;20390;-81
2022/12/17 21:11:27;;;;;;;89.03;23.33;;;;;;;-3.93;100.00;102852.66;4981105;28;20647;-82
2022/12/17 21:13:54;;;;;;;88.60;25.08;;;;;;;-3.97;100.00;102854.09;4987249;28;20416;-82
2022/12/17 21:16:26;;;;;;;82.28;23.40;;;;;;;-3.99;100.00;102843.88;4990876;28;20034;-83
2022/12/17 21:18:55;;;;;;;84.03;24.00;;;;;;;-3.98;100.00;102842.22;4989970;28;20076;-78
2022/12/17 21:21:24;;;;;;;92.72;24.40;;;;;;;-3.96;100.00;102843.22;4988755;28;20412;-78
2022/12/17 21:23:50;;;;;;;84.75;23.58;;;;;;;-3.97;100.00;102848.16;4983145;28;20327;-78
2022/12/17 21:26:21;;;;;;;91.75;23.77;;;;;;;-4.02;100.00;102842.78;4988672;28;20041;-78
2022/12/17 21:28:50;;;;;;;90.18;24.55;;;;;;;-4.06;100.00;102851.81;4991992;28;20500;-78
2022/12/17 21:31:20;;;;;;;86.32;24.02;;;;;;;-4.14;100.00;102852.06;4987894;28;20026;-78
2022/12/17 21:33:49;;;;;;;86.97;23.13;;;;;;;-4.19;100.00;102853.44;4990291;28;20393;-78
2022/12/17 21:36:16;;;;;;;85.60;22.98;;;;;;;-4.21;100.00;102867.63;4987258;28;20584;-77
2022/12/17 21:38:41;;;;;;;80.10;23.02;;;;;;;-4.26;100.00;102867.31;4986211;28;20031;-77
2022/12/17 21:41:11;;;;;;;80.90;23.10;;;;;;;-4.29;100.00;102876.34;4970962;28;20030;-77
2022/12/17 21:43:37;;;;;;;90.35;24.73;;;;;;;-4.33;100.00;102874.38;4984614;28;20037;-77
2022/12/17 21:46:03;;;;;;;80.28;23.88;;;;;;;-4.36;100.00;102880.09;4990554;28;20034;-78
2022/12/17 21:48:28;;;;;;;84.55;25.17;;;;;;;-4.38;100.00;102881.66;4986659;28;20026;-78
2022/12/17 21:50:54;;;;;;;91.70;26.02;;;;;;;-4.41;100.00;102871.31;4988247;28;20354;-78
2022/12/17 21:53:20;;;;;;;89.13;23.23;;;;;;;-4.44;100.00;102873.66;4989835;28;20026;-78
2022/12/17 21:55:46;;;;;;;83.18;24.98;;;;;;;-4.47;100.00;102868.38;4987909;28;20065;-78
2022/12/17 21:58:12;;;;;;;88.82;24.23;;;;;;;-4.48;100.00;102881.78;4989046;28;20026;-78
2022/12/17 22:00:37;;;;;;;77.88;22.88;;;;;;;-4.48;100.00;102886.84;4989775;28;20049;-78
2022/12/17 22:03:03;;;;;;;84.93;23.35;;;;;;;-4.47;100.00;102886.09;4982785;28;20027;-78
2022/12/17 22:05:28;;;;;;;88.50;24.63;;;;;;;-4.47;100.00;102886.97;4990267;28;20324;-77
2022/12/17 22:07:54;;;;;;;84.80;23.90;;;;;;;-4.47;100.00;102881.91;4987033;28;20022;-78
2022/12/17 22:10:19;;;;;;;94.82;24.33;;;;;;;-4.47;100.00;102893.69;4987873;28;20409;-78
2022/12/17 22:15:29;;;;;;;81.27;23.33;;;;;;;-4.55;100.00;102899.84;4992816;28;20116;-77
2022/12/17 22:17:55;;;;;;;77.75;21.52;;;;;;;-4.61;100.00;102891.81;4992657;28;20664;-77
2022/12/17 22:20:20;;;;;;;72.20;20.50;;;;;;;-4.67;100.00;102892.28;4992149;28;20062;-77
2022/12/17 22:22:46;;;;;;;76.00;21.23;;;;;;;-4.72;100.00;102892.72;4993579;28;20049;-77
2022/12/17 22:25:11;;;;;;;73.07;21.67;;;;;;;-4.77;100.00;102893.25;4993478;28;20033;-77
2022/12/17 22:27:38;;;;;;;68.35;21.30;;;;;;;-4.83;100.00;102887.78;4992630;28;20044;-77
2022/12/17 22:33:02;;;;;;;69.93;20.17;;;;;;;-4.93;100.00;102882.84;4979914;28;20076;-82
2022/12/17 22:35:33;;;;;;;69.35;21.05;;;;;;;-4.94;100.00;102885.25;4986382;28;20158;-82
2022/12/17 22:37:58;;;;;;;69.82;21.05;;;;;;;-5.00;100.00;102895.81;4987107;28;20030;-83
2022/12/17 22:40:24;;;;;;;69.13;20.80;;;;;;;-5.09;100.00;102895.16;4992479;28;20022;-83
2022/12/17 22:45:37;;;;;;;76.75;20.48;;;;;;;-5.21;100.00;102895.16;4988879;28;20555;-83
2022/12/17 22:48:03;;;;;;;64.88;20.10;;;;;;;-5.30;100.00;102894.47;4971186;28;20046;-83
2022/12/17 22:50:28;;;;;;;67.47;19.60;;;;;;;-5.36;100.00;102894.03;4992699;28;20419;-83
2022/12/17 22:52:54;;;;;;;72.20;20.15;;;;;;;-5.39;100.00;102886.19;4993507;28;20030;-83
2022/12/17 22:55:19;;;;;;;61.28;18.20;;;;;;;-5.45;100.00;102880.69;4993380;28;20030;-83
2022/12/17 22:57:44;;;;;;;68.90;19.35;;;;;;;-5.50;100.00;102889.59;4992454;28;20340;-83
2022/12/17 23:00:23;;;;;;;65.63;19.95;;;;;;;-5.55;100.00;102893.44;4993152;28;20110;-77
2022/12/17 23:02:52;;;;;;;57.92;18.33;;;;;;;-5.61;100.00;102893.00;4991786;28;20030;-77
2022/12/17 23:05:17;;;;;;;60.75;18.55;;;;;;;-5.65;100.00;102896.91;4992620;28;20042;-77
2022/12/17 23:07:43;;;;;;;67.03;19.52;;;;;;;-5.70;100.00;102899.88;4990769;28;20056;-77
2022/12/17 23:10:08;;;;;;;67.82;19.48;;;;;;;-5.77;100.00;102890.97;4989495;28;20084;-77
2022/12/17 23:12:55;;;;;;;73.13;20.92;;;;;;;-5.81;100.00;102888.97;4993792;28;20444;-77
2022/12/17 23:15:42;;;;;;;73.25;19.48;;;;;;;-5.83;100.00;102887.09;4975081;28;20026;-77
2022/12/17 23:18:08;;;;;;;66.53;19.85;;;;;;;-5.89;100.00;102882.50;4966817;28;20173;-76
2022/12/17 23:20:34;;;;;;;66.28;20.48;;;;;;;-5.93;100.00;102879.63;4987631;28;20485;-77
2022/12/17 23:23:00;;;;;;;65.78;20.55;;;;;;;-5.99;100.00;102870.81;4987396;28;20034;-77
2022/12/17 23:25:27;;;;;;;68.65;20.75;;;;;;;-6.02;100.00;102864.69;4991240;28;20037;-77
2022/12/17 23:27:53;;;;;;;70.10;19.33;;;;;;;-6.06;100.00;102870.25;4975378;28;20026;-76
2022/12/17 23:30:19;;;;;;;71.80;20.50;;;;;;;-6.12;100.00;102888.34;4991709;28;20037;-83
2022/12/17 23:32:45;;;;;;;67.75;19.23;;;;;;;-6.15;100.00;102889.75;4989981;28;20102;-83
2022/12/17 23:35:11;;;;;;;65.82;19.00;;;;;;;-6.18;100.00;102886.97;4982624;28;20121;-84
2022/12/17 23:37:37;;;;;;;69.10;20.13;;;;;;;-6.21;100.00;102880.03;4989968;28;20076;-83
2022/12/17 23:40:03;;;;;;;69.03;21.05;;;;;;;-6.25;100.00;102882.22;4987753;28;20026;-83
2022/12/17 23:42:28;;;;;;;70.47;19.45;;;;;;;-6.28;100.00;102879.50;4991812;28;20026;-83
2022/12/17 23:44:54;;;;;;;59.03;19.38;;;;;;;-6.31;100.00;102884.28;4992003;28;20059;-82
2022/12/17 23:47:19;;;;;;;64.97;19.55;;;;;;;-6.36;100.00;102878.03;4990711;28;20301;-83
2022/12/17 23:49:44;;;;;;;58.03;18.55;;;;;;;-6.40;100.00;102881.94;4991908;28;20200;-83
2022/12/17 23:52:10;;;;;;;65.03;19.70;;;;;;;-6.42;100.00;102875.91;4988657;28;20034;-82
2022/12/17 23:54:35;;;;;;;56.00;17.65;;;;;;;-6.47;100.00;102880.56;4992442;28;20190;-83
2022/12/17 23:57:00;;;;;;;68.05;19.48;;;;;;;-6.47;100.00;102879.69;4990254;28;20033;-83
2022/12/17 23:59:26;;;;;;;67.22;18.85;;;;;;;-6.50;100.00;102875.31;4988880;28;20465;-77
